createdAt,value
2022-07-30T00:00:32.789Z,99.90
2022-07-30T00:03:02.779Z,99.90
2022-07-30T00:05:31.448Z,99.90
2022-07-30T00:07:59.967Z,99.90
2022-07-30T00:10:28.475Z,99.90
2022-07-30T00:12:57.227Z,99.90
2022-07-30T00:15:26.187Z,99.90
2022-07-30T00:17:54.718Z,99.90
2022-07-30T00:20:27.926Z,99.90
2022-07-30T00:22:56.955Z,99.90
2022-07-30T00:25:25.651Z,99.90
2022-07-30T00:27:54.162Z,99.90
2022-07-30T00:30:22.972Z,99.90
2022-07-30T00:32:51.698Z,99.90
2022-07-30T00:35:20.211Z,99.90
2022-07-30T00:37:50.146Z,99.90
2022-07-30T00:40:18.702Z,99.90
2022-07-30T00:42:48.739Z,99.90
2022-07-30T00:45:18.545Z,99.90
2022-07-30T00:47:47.213Z,99.90
2022-07-30T00:50:16.655Z,99.90
2022-07-30T00:52:45.890Z,99.90
2022-07-30T00:55:16.753Z,99.90
2022-07-30T00:57:45.485Z,99.90
2022-07-30T01:00:16.543Z,99.90
2022-07-30T01:02:45.196Z,99.90
2022-07-30T01:05:14.151Z,99.90
2022-07-30T01:07:42.804Z,99.90
2022-07-30T01:10:13.077Z,99.90
2022-07-30T01:12:44.854Z,99.90
2022-07-30T01:15:13.860Z,99.90
2022-07-30T01:17:43.045Z,99.90
2022-07-30T01:20:13.838Z,99.90
2022-07-30T01:22:49.451Z,99.90
2022-07-30T01:25:29.689Z,99.90
2022-07-30T01:28:02.541Z,99.90
2022-07-30T01:30:34.850Z,99.90
2022-07-30T01:33:04.825Z,99.90
2022-07-30T01:35:34.486Z,99.90
2022-07-30T01:38:05.478Z,99.90
2022-07-30T01:40:34.259Z,99.90
2022-07-30T01:43:04.675Z,99.90
2022-07-30T01:45:41.358Z,99.90
2022-07-30T01:48:14.133Z,99.90
2022-07-30T01:50:45.697Z,99.90
2022-07-30T01:53:16.681Z,99.90
2022-07-30T01:55:45.927Z,99.90
2022-07-30T01:58:18.510Z,99.90
2022-07-30T02:00:47.729Z,99.90
2022-07-30T02:03:16.439Z,99.90
2022-07-30T02:05:51.856Z,99.90
2022-07-30T02:08:25.871Z,99.90
2022-07-30T02:10:57.815Z,99.90
2022-07-30T02:13:29.871Z,99.90
2022-07-30T02:16:02.281Z,99.90
2022-07-30T02:18:34.488Z,99.90
2022-07-30T02:21:10.878Z,99.90
2022-07-30T02:23:44.335Z,99.90
2022-07-30T02:26:16.102Z,99.90
2022-07-30T02:28:50.955Z,99.90
2022-07-30T02:31:22.548Z,99.90
2022-07-30T02:33:52.067Z,99.90
2022-07-30T02:36:21.236Z,99.90
2022-07-30T02:38:51.463Z,99.90
2022-07-30T02:41:22.091Z,99.90
2022-07-30T02:43:52.668Z,99.90
2022-07-30T02:46:21.454Z,99.90
2022-07-30T02:48:50.837Z,99.90
2022-07-30T02:51:19.780Z,99.90
2022-07-30T02:53:51.921Z,99.90
2022-07-30T02:56:21.451Z,99.90
2022-07-30T02:58:52.242Z,99.90
2022-07-30T03:01:23.029Z,99.90
2022-07-30T03:03:52.147Z,99.90
2022-07-30T03:06:21.458Z,99.90
2022-07-30T03:08:50.134Z,99.90
2022-07-30T03:11:20.671Z,99.90
2022-07-30T03:13:49.397Z,99.90
2022-07-30T03:16:20.456Z,99.90
2022-07-30T03:18:50.019Z,99.90
2022-07-30T03:21:19.351Z,99.90
2022-07-30T03:23:49.497Z,99.90
2022-07-30T03:26:21.217Z,99.90
2022-07-30T03:28:50.797Z,99.90
2022-07-30T03:31:22.548Z,99.90
2022-07-30T03:33:51.848Z,99.90
2022-07-30T03:36:21.948Z,99.90
2022-07-30T03:38:51.030Z,99.90
2022-07-30T03:41:19.972Z,99.90
2022-07-30T03:43:49.187Z,99.90
2022-07-30T03:46:20.180Z,99.90
2022-07-30T03:48:49.237Z,99.90
2022-07-30T03:51:18.351Z,99.90
2022-07-30T03:53:47.067Z,99.90
2022-07-30T03:56:16.135Z,99.90
2022-07-30T03:58:44.716Z,99.90
2022-07-30T04:01:13.317Z,99.90
2022-07-30T04:03:43.317Z,99.90
2022-07-30T04:06:11.849Z,99.90
2022-07-30T04:08:40.349Z,99.90
2022-07-30T04:11:08.860Z,99.90
2022-07-30T04:13:37.365Z,99.90
2022-07-30T04:16:40.439Z,99.90
2022-07-30T04:19:01.708Z,99.90
2022-07-30T04:21:31.714Z,99.90
2022-07-30T04:24:05.170Z,99.90
2022-07-30T04:26:36.887Z,99.90
2022-07-30T04:29:07.694Z,99.90
2022-07-30T04:31:40.308Z,99.90
2022-07-30T04:34:15.128Z,99.90
2022-07-30T04:36:44.355Z,99.90
2022-07-30T04:39:12.966Z,99.90
2022-07-30T04:41:49.572Z,99.90
2022-07-30T04:44:19.539Z,99.90
2022-07-30T04:46:49.703Z,99.90
2022-07-30T04:49:20.812Z,99.90
2022-07-30T04:51:50.795Z,99.90
2022-07-30T04:54:19.707Z,99.90
2022-07-30T04:56:49.484Z,99.90
2022-07-30T04:59:25.094Z,99.90
2022-07-30T05:01:55.218Z,99.90
2022-07-30T05:04:26.565Z,99.90
2022-07-30T05:06:55.559Z,99.90
2022-07-30T05:09:24.209Z,99.90
2022-07-30T05:11:53.303Z,99.90
2022-07-30T05:14:22.610Z,99.90
2022-07-30T05:16:51.576Z,99.90
2022-07-30T05:19:40.161Z,99.90
2022-07-30T05:22:08.739Z,99.90
2022-07-30T05:24:37.363Z,99.90
2022-07-30T05:27:05.992Z,99.90
2022-07-30T05:29:34.501Z,99.90
2022-07-30T05:32:03.452Z,99.90
2022-07-30T05:34:32.229Z,99.90
2022-07-30T05:37:02.506Z,99.90
2022-07-30T05:39:31.459Z,99.90
2022-07-30T05:42:01.236Z,99.90
2022-07-30T05:44:29.821Z,99.90
2022-07-30T05:46:58.595Z,99.90
2022-07-30T05:49:27.488Z,99.90
2022-07-30T05:51:56.054Z,99.90
2022-07-30T05:54:26.018Z,99.90
2022-07-30T05:56:54.534Z,99.90
2022-07-30T05:59:23.067Z,99.90
2022-07-30T06:01:51.671Z,99.90
2022-07-30T06:04:20.329Z,99.90
2022-07-30T06:06:49.084Z,99.90
2022-07-30T06:09:17.599Z,99.90
2022-07-30T06:11:57.548Z,99.90
2022-07-30T06:14:26.103Z,99.90
2022-07-30T06:16:54.586Z,99.90
2022-07-30T06:19:23.228Z,99.90
2022-07-30T06:22:05.318Z,99.90
2022-07-30T06:24:35.500Z,99.90
2022-07-30T06:27:05.643Z,99.90
2022-07-30T06:29:34.118Z,99.90
2022-07-30T06:32:02.719Z,99.90
2022-07-30T06:34:31.241Z,99.90
2022-07-30T06:37:00.056Z,99.90
2022-07-30T06:39:56.789Z,99.90
2022-07-30T06:42:18.823Z,99.90
2022-07-30T06:44:47.408Z,99.90
2022-07-30T06:47:21.283Z,99.90
2022-07-30T06:49:49.874Z,99.90
2022-07-30T06:52:18.924Z,99.90
2022-07-30T06:54:48.354Z,99.90
2022-07-30T06:57:18.752Z,99.90
2022-07-30T06:59:55.796Z,99.90
2022-07-30T07:02:25.462Z,99.90
2022-07-30T07:04:54.033Z,99.90
2022-07-30T07:07:40.253Z,99.90
2022-07-30T07:10:10.594Z,99.90
2022-07-30T07:12:40.523Z,99.90
2022-07-30T07:15:10.388Z,99.90
2022-07-30T07:17:40.365Z,99.90
2022-07-30T07:20:15.804Z,99.90
2022-07-30T07:22:52.870Z,99.90
2022-07-30T07:25:34.640Z,99.90
2022-07-30T07:28:12.793Z,99.90
2022-07-30T07:30:43.265Z,99.90
2022-07-30T07:33:12.278Z,99.90
2022-07-30T07:35:56.550Z,99.90
2022-07-30T07:38:28.287Z,99.90
2022-07-30T07:41:17.204Z,99.90
2022-07-30T07:43:50.313Z,99.90
2022-07-30T07:46:33.967Z,99.90
2022-07-30T07:49:03.198Z,99.90
2022-07-30T07:51:48.168Z,99.90
2022-07-30T07:54:21.993Z,99.90
2022-07-30T07:56:57.155Z,99.90
2022-07-30T07:59:36.153Z,99.90
2022-07-30T08:02:09.138Z,99.90
2022-07-30T08:04:37.923Z,99.90
2022-07-30T08:07:06.712Z,99.90
2022-07-30T08:09:40.848Z,99.90
2022-07-30T08:12:13.535Z,99.90
2022-07-30T08:14:43.599Z,99.90
2022-07-30T08:17:12.200Z,99.90
2022-07-30T08:19:41.031Z,99.90
2022-07-30T08:22:10.083Z,99.90
2022-07-30T08:24:38.619Z,99.90
2022-07-30T08:27:07.135Z,99.90
2022-07-30T08:29:35.703Z,99.90
2022-07-30T08:32:06.058Z,99.90
2022-07-30T08:34:34.700Z,99.90
2022-07-30T08:37:03.575Z,99.90
2022-07-30T08:39:32.090Z,99.90
2022-07-30T08:42:01.635Z,99.90
2022-07-30T08:44:30.859Z,99.90
2022-07-30T08:47:01.277Z,99.90
2022-07-30T08:49:31.403Z,99.90
2022-07-30T08:52:00.373Z,99.90
2022-07-30T08:54:29.387Z,99.90
2022-07-30T08:56:59.707Z,99.90
2022-07-30T08:59:59.260Z,99.90
2022-07-30T09:02:29.756Z,99.90
2022-07-30T09:05:00.371Z,99.90
2022-07-30T09:07:29.092Z,99.90
2022-07-30T09:09:58.440Z,99.90
2022-07-30T09:12:38.515Z,99.90
2022-07-30T09:15:10.400Z,99.90
2022-07-30T09:17:52.250Z,99.90
2022-07-30T09:20:23.382Z,99.90
2022-07-30T09:22:53.938Z,99.90
2022-07-30T09:25:36.611Z,99.90
2022-07-30T09:28:15.655Z,99.90
2022-07-30T09:30:50.126Z,99.90
2022-07-30T09:33:33.338Z,99.90
2022-07-30T09:36:05.790Z,99.90
2022-07-30T09:38:45.690Z,99.90
2022-07-30T09:41:36.258Z,99.90
2022-07-30T09:44:05.085Z,99.90
2022-07-30T09:46:45.442Z,99.90
2022-07-30T09:49:17.878Z,99.90
2022-07-30T09:51:56.688Z,99.90
2022-07-30T09:54:26.951Z,99.90
2022-07-30T09:57:25.835Z,99.90
2022-07-30T09:59:57.418Z,99.90
2022-07-30T10:02:33.210Z,99.90
2022-07-30T10:05:14.603Z,99.90
2022-07-30T10:07:53.273Z,99.90
2022-07-30T10:10:26.088Z,99.90
2022-07-30T10:12:59.021Z,99.90
2022-07-30T10:15:30.304Z,99.90
2022-07-30T10:18:01.734Z,99.90
2022-07-30T10:20:32.130Z,99.90
2022-07-30T10:23:08.150Z,99.90
2022-07-30T10:25:49.724Z,99.90
2022-07-30T10:28:24.516Z,99.90
2022-07-30T10:30:55.680Z,99.90
2022-07-30T10:33:35.158Z,99.90
2022-07-30T10:36:08.969Z,99.90
2022-07-30T10:38:41.485Z,99.90
2022-07-30T10:41:42.235Z,99.90
2022-07-30T10:44:32.435Z,99.90
2022-07-30T10:47:06.593Z,99.90
2022-07-30T10:49:41.461Z,99.90
2022-07-30T10:52:12.175Z,99.90
2022-07-30T10:54:45.106Z,99.90
2022-07-30T10:57:31.788Z,99.90
2022-07-30T11:00:15.841Z,99.90
2022-07-30T11:03:18.301Z,99.90
2022-07-30T11:05:48.819Z,99.90
2022-07-30T11:08:42.995Z,99.90
2022-07-30T11:12:15.750Z,99.90
2022-07-30T11:14:58.428Z,99.90
2022-07-30T11:18:00.837Z,99.90
2022-07-30T11:20:29.643Z,99.90
2022-07-30T11:23:14.247Z,99.90
2022-07-30T11:25:50.184Z,99.90
2022-07-30T11:28:42.932Z,99.90
2022-07-30T11:31:36.929Z,99.90
2022-07-30T11:34:31.327Z,99.90
2022-07-30T11:37:22.323Z,99.90
2022-07-30T11:40:15.311Z,99.90
2022-07-30T11:42:44.986Z,99.90
2022-07-30T11:45:29.799Z,99.90
2022-07-30T11:48:00.286Z,99.90
2022-07-30T11:50:31.799Z,99.90
2022-07-30T11:53:03.618Z,99.90
2022-07-30T11:55:33.711Z,99.90
2022-07-30T11:58:03.675Z,99.90
2022-07-30T12:00:39.134Z,99.90
2022-07-30T12:03:12.374Z,99.90
2022-07-30T12:05:41.375Z,99.90
2022-07-30T12:08:10.348Z,99.90
2022-07-30T12:11:00.702Z,99.90
2022-07-30T12:13:43.799Z,99.90
2022-07-30T12:16:17.616Z,99.90
2022-07-30T12:18:47.768Z,99.90
2022-07-30T12:21:16.920Z,99.90
2022-07-30T12:23:55.253Z,99.90
2022-07-30T12:26:26.901Z,99.90
2022-07-30T12:28:56.667Z,99.90
2022-07-30T12:31:27.369Z,99.90
2022-07-30T12:33:59.156Z,99.90
2022-07-30T12:36:30.844Z,99.90
2022-07-30T12:39:00.305Z,99.90
2022-07-30T12:41:42.810Z,99.90
2022-07-30T12:44:11.374Z,99.90
2022-07-30T12:46:42.311Z,99.90
2022-07-30T12:49:21.182Z,99.90
2022-07-30T12:51:59.883Z,99.10
2022-07-30T12:54:29.327Z,99.90
2022-07-30T12:57:00.792Z,99.90
2022-07-30T12:59:30.499Z,99.90
2022-07-30T13:02:01.301Z,99.80
2022-07-30T13:04:31.605Z,99.30
2022-07-30T13:07:07.611Z,98.00
2022-07-30T13:09:39.940Z,98.00
2022-07-30T13:12:17.824Z,97.20
2022-07-30T13:14:47.644Z,96.00
2022-07-30T13:17:17.563Z,96.90
2022-07-30T13:19:46.055Z,95.70
2022-07-30T13:22:14.667Z,93.20
2022-07-30T13:24:43.867Z,93.10
2022-07-30T13:27:12.460Z,93.60
2022-07-30T13:29:41.011Z,93.90
2022-07-30T13:32:09.552Z,93.40
2022-07-30T13:34:40.187Z,93.90
2022-07-30T13:37:09.004Z,93.70
2022-07-30T13:39:37.508Z,93.20
2022-07-30T13:42:06.098Z,91.70
2022-07-30T13:44:34.666Z,91.50
2022-07-30T13:47:04.885Z,91.30
2022-07-30T13:49:35.292Z,91.40
2022-07-30T13:52:05.845Z,92.60
2022-07-30T13:54:34.577Z,91.40
2022-07-30T13:57:03.794Z,91.30
2022-07-30T13:59:32.704Z,87.00
2022-07-30T14:02:03.583Z,89.70
2022-07-30T14:04:32.132Z,86.30
2022-07-30T14:07:01.138Z,86.20
2022-07-30T14:09:31.231Z,83.30
2022-07-30T14:11:59.692Z,84.00
2022-07-30T14:14:29.142Z,83.60
2022-07-30T14:16:57.772Z,83.90
2022-07-30T14:19:26.318Z,83.10
2022-07-30T14:21:55.220Z,82.10
2022-07-30T14:24:24.278Z,86.30
2022-07-30T14:26:58.031Z,88.10
2022-07-30T14:29:27.259Z,87.20
2022-07-30T14:31:55.923Z,84.00
2022-07-30T14:34:24.503Z,79.90
2022-07-30T14:36:53.064Z,85.00
2022-07-30T14:39:21.724Z,80.00
2022-07-30T14:41:52.392Z,81.80
2022-07-30T14:44:25.922Z,82.40
2022-07-30T14:46:54.571Z,78.70
2022-07-30T14:49:24.160Z,77.90
2022-07-30T14:51:53.291Z,77.90
2022-07-30T14:54:22.391Z,78.20
2022-07-30T14:56:56.278Z,80.80
2022-07-30T14:59:28.749Z,85.10
2022-07-30T15:01:58.045Z,86.50
2022-07-30T15:04:26.651Z,79.30
2022-07-30T15:06:55.512Z,79.10
2022-07-30T15:09:24.079Z,78.30
2022-07-30T15:12:09.824Z,76.20
2022-07-30T15:14:41.755Z,72.90
2022-07-30T15:17:12.362Z,73.10
2022-07-30T15:19:49.911Z,74.30
2022-07-30T15:22:20.122Z,74.30
2022-07-30T15:24:48.994Z,74.10
2022-07-30T15:27:17.793Z,74.30
2022-07-30T15:29:47.742Z,73.00
2022-07-30T15:32:17.411Z,70.40
2022-07-30T15:34:46.161Z,70.10
2022-07-30T15:37:15.590Z,70.90
2022-07-30T15:39:44.127Z,66.30
2022-07-30T15:42:14.926Z,67.10
2022-07-30T15:44:48.730Z,67.30
2022-07-30T15:47:19.104Z,66.40
2022-07-30T15:49:47.691Z,66.60
2022-07-30T15:52:16.259Z,67.70
2022-07-30T15:54:45.078Z,66.80
2022-07-30T15:57:14.049Z,66.10
2022-07-30T15:59:42.567Z,65.70
2022-07-30T16:02:11.115Z,66.40
2022-07-30T16:04:41.216Z,66.50
2022-07-30T16:07:09.776Z,68.20
2022-07-30T16:09:38.282Z,64.90
2022-07-30T16:12:07.724Z,65.60
2022-07-30T16:14:36.419Z,64.40
2022-07-30T16:17:05.006Z,66.40
2022-07-30T16:19:34.016Z,65.10
2022-07-30T16:22:04.441Z,66.30
2022-07-30T16:24:33.195Z,67.20
2022-07-30T16:27:01.906Z,67.30
2022-07-30T16:29:30.406Z,65.30
2022-07-30T16:31:58.927Z,65.70
2022-07-30T16:34:28.125Z,63.20
2022-07-30T16:36:56.622Z,64.00
2022-07-30T16:39:26.642Z,65.10
2022-07-30T16:41:55.140Z,63.20
2022-07-30T16:44:23.792Z,61.50
2022-07-30T16:46:52.286Z,61.20
2022-07-30T16:49:20.913Z,62.00
2022-07-30T16:51:49.579Z,62.30
2022-07-30T16:54:18.111Z,63.40
2022-07-30T16:56:49.991Z,66.00
2022-07-30T16:59:19.382Z,66.10
2022-07-30T17:01:48.299Z,65.00
2022-07-30T17:04:17.796Z,65.80
2022-07-30T17:06:47.079Z,66.00
2022-07-30T17:09:16.087Z,66.00
2022-07-30T17:11:52.029Z,66.60
2022-07-30T17:14:23.186Z,67.20
2022-07-30T17:16:51.719Z,66.70
2022-07-30T17:19:20.235Z,67.40
2022-07-30T17:21:48.746Z,69.30
2022-07-30T17:24:17.522Z,70.20
2022-07-30T17:26:47.143Z,70.10
2022-07-30T17:29:16.773Z,70.40
2022-07-30T17:31:47.806Z,70.20
2022-07-30T17:34:20.190Z,69.80
2022-07-30T17:36:52.404Z,69.30
2022-07-30T17:40:23.885Z,67.10
2022-07-30T17:42:11.276Z,69.00
2022-07-30T17:44:41.093Z,68.40
2022-07-30T17:47:14.679Z,68.40
2022-07-30T17:49:45.359Z,68.70
2022-07-30T17:52:13.937Z,69.00
2022-07-30T17:54:42.415Z,69.20
2022-07-30T17:57:11.088Z,69.30
2022-07-30T17:59:39.629Z,69.80
2022-07-30T18:02:08.211Z,70.20
2022-07-30T18:04:38.142Z,72.40
2022-07-30T18:07:06.703Z,75.90
2022-07-30T18:09:39.956Z,77.10
2022-07-30T18:12:09.645Z,78.10
2022-07-30T18:14:38.645Z,78.90
2022-07-30T18:17:11.155Z,80.40
2022-07-30T18:19:43.934Z,81.30
2022-07-30T18:22:14.737Z,81.90
2022-07-30T18:24:44.334Z,82.70
2022-07-30T18:27:13.581Z,83.80
2022-07-30T18:29:42.311Z,85.70
2022-07-30T18:32:10.943Z,87.20
2022-07-30T18:34:39.642Z,88.00
2022-07-30T18:37:09.580Z,88.60
2022-07-30T18:39:38.083Z,88.60
2022-07-30T18:42:07.513Z,89.20
2022-07-30T18:44:36.129Z,89.70
2022-07-30T18:47:05.005Z,90.20
2022-07-30T18:49:37.208Z,90.80
2022-07-30T18:52:08.023Z,91.10
2022-07-30T18:54:38.865Z,91.60
2022-07-30T18:57:11.366Z,92.80
2022-07-30T18:59:43.892Z,93.50
2022-07-30T19:02:12.546Z,93.40
2022-07-30T19:04:41.039Z,93.10
2022-07-30T19:07:09.656Z,92.90
2022-07-30T19:09:39.697Z,93.30
2022-07-30T19:12:08.951Z,93.00
2022-07-30T19:14:37.683Z,93.20
2022-07-30T19:17:14.226Z,92.80
2022-07-30T19:19:44.030Z,93.40
2022-07-30T19:22:12.794Z,93.30
2022-07-30T19:24:43.484Z,93.50
2022-07-30T19:27:14.242Z,94.20
2022-07-30T19:29:43.512Z,95.50
2022-07-30T19:32:12.236Z,95.20
2022-07-30T19:34:43.566Z,95.30
2022-07-30T19:37:12.376Z,95.40
2022-07-30T19:39:58.710Z,95.30
2022-07-30T19:42:30.960Z,95.80
2022-07-30T19:45:01.309Z,95.90
2022-07-30T19:50:21.735Z,96.40
2022-07-30T19:52:56.737Z,96.10
2022-07-30T19:55:31.127Z,96.70
2022-07-30T19:58:16.486Z,97.10
2022-07-30T20:00:49.542Z,96.60
2022-07-30T20:03:25.697Z,96.90
2022-07-30T20:05:59.767Z,97.30
2022-07-30T20:08:28.654Z,97.80
2022-07-30T20:10:59.333Z,97.90
2022-07-30T20:13:45.467Z,97.90
2022-07-30T20:16:15.497Z,97.80
2022-07-30T20:18:45.834Z,98.30
2022-07-30T20:21:16.220Z,98.20
2022-07-30T20:23:45.461Z,98.00
2022-07-30T20:26:16.397Z,98.00
2022-07-30T20:28:52.609Z,98.50
2022-07-30T20:31:21.992Z,98.40
2022-07-30T20:33:51.154Z,99.20
2022-07-30T20:36:19.977Z,99.00
2022-07-30T20:38:49.325Z,98.80
2022-07-30T20:41:19.298Z,99.10
2022-07-30T20:43:51.994Z,99.10
2022-07-30T20:46:23.120Z,98.80
2022-07-30T20:48:52.835Z,99.20
2022-07-30T20:51:21.888Z,99.50
2022-07-30T20:54:02.784Z,99.30
2022-07-30T20:56:32.752Z,98.70
2022-07-30T20:59:01.450Z,99.10
2022-07-30T21:01:30.798Z,99.90
2022-07-30T21:03:59.585Z,99.90
2022-07-30T21:06:28.085Z,99.90
2022-07-30T21:08:56.796Z,99.90
2022-07-30T21:11:26.601Z,99.90
2022-07-30T21:13:56.469Z,99.90
2022-07-30T21:16:27.221Z,99.90
2022-07-30T21:18:59.331Z,99.90
2022-07-30T21:21:33.423Z,99.90
2022-07-30T21:24:12.369Z,99.90
2022-07-30T21:26:41.509Z,99.90
2022-07-30T21:29:12.048Z,99.90
2022-07-30T21:32:01.329Z,99.90
2022-07-30T21:34:35.204Z,99.90
2022-07-30T21:37:09.102Z,99.90
2022-07-30T21:39:40.153Z,99.90
2022-07-30T21:42:09.188Z,99.90
2022-07-30T21:44:39.605Z,99.90
2022-07-30T21:47:10.492Z,99.90
2022-07-30T21:49:40.024Z,99.90
2022-07-30T21:52:11.545Z,99.90
2022-07-30T21:54:48.391Z,99.90
2022-07-30T21:57:30.211Z,99.90
2022-07-30T22:00:00.417Z,99.90
2022-07-30T22:02:29.392Z,99.90
2022-07-30T22:04:59.096Z,99.90
2022-07-30T22:07:27.712Z,99.90
2022-07-30T22:09:56.258Z,99.90
2022-07-30T22:12:25.780Z,99.90
2022-07-30T22:14:59.245Z,99.90
2022-07-30T22:17:37.399Z,99.90
2022-07-30T22:20:19.655Z,99.90
2022-07-30T22:22:48.486Z,99.90
2022-07-30T22:25:21.614Z,99.90
2022-07-30T22:27:56.596Z,99.90
2022-07-30T22:30:28.094Z,99.90
2022-07-30T22:33:09.467Z,99.90
2022-07-30T22:35:38.411Z,99.90
2022-07-30T22:38:08.139Z,99.90
2022-07-30T22:40:37.173Z,99.90
2022-07-30T22:43:10.184Z,99.90
2022-07-30T22:45:49.511Z,99.90
2022-07-30T22:48:19.159Z,99.90
2022-07-30T22:50:52.150Z,99.90
2022-07-30T22:54:11.326Z,99.90
2022-07-30T22:56:14.302Z,99.90
2022-07-30T22:58:45.078Z,99.90
2022-07-30T23:01:18.755Z,99.90
2022-07-30T23:03:48.013Z,99.90
2022-07-30T23:06:30.185Z,99.90
2022-07-30T23:09:00.362Z,99.90
2022-07-30T23:11:36.954Z,99.90
2022-07-30T23:12:15.037Z,96.30
2022-07-30T23:14:08.663Z,99.90
2022-07-30T23:16:39.329Z,99.90
2022-07-30T23:19:09.524Z,99.90
2022-07-30T23:21:48.772Z,99.90
2022-07-30T23:24:17.961Z,99.90
2022-07-30T23:26:48.001Z,99.90
2022-07-30T23:29:18.978Z,99.90
2022-07-30T23:31:49.355Z,99.90
2022-07-30T23:34:17.911Z,99.90
2022-07-30T23:36:46.470Z,99.90
2022-07-30T23:39:15.543Z,99.90
2022-07-30T23:41:44.040Z,99.90
2022-07-30T23:44:12.580Z,99.90
2022-07-30T23:46:41.111Z,99.90
2022-07-30T23:49:11.159Z,99.90
2022-07-30T23:51:39.773Z,99.90
2022-07-30T23:54:08.376Z,99.90
2022-07-30T23:56:36.912Z,99.90
2022-07-30T23:59:05.449Z,99.90
